Time;durP1;ratioP1;P1;durP2;ratioP2;P2;SDS_P1;SDS_P2;PMS_P1;PMS_P2;Temp;Humidity;BMP_temperature;BMP_pressure;BME280_temperature;BME280_humidity;BME280_pressure;Samples;Min_cycle;Max_cycle;Signal;HPM_P1;HPM_P2
2023/08/11 00:01:43;;;;;;;0.20;0.20;;;13.50;99.90;;;;;;5061995;28;20702;-78
2023/08/11 00:04:10;;;;;;;0.10;0.10;;;;;;;;;;5044560;28;20036;-78
2023/08/11 00:06:37;;;;;;;0.10;0.10;;;14.40;99.90;;;;;;5062399;28;20017;-79
2023/08/11 00:09:06;;;;;;;0.10;0.10;;;14.30;99.90;;;;;;5062051;28;20021;-75
2023/08/11 00:11:32;;;;;;;0.10;0.10;;;15.50;99.90;;;;;;5062081;28;20666;-75
2023/08/11 00:13:58;;;;;;;0.10;0.10;;;16.90;99.90;;;;;;5061124;28;20526;-75
2023/08/11 00:16:24;;;;;;;1.05;1.05;;;16.80;99.90;;;;;;5062284;28;20016;-75
2023/08/11 00:18:50;;;;;;;4.55;4.13;;;16.70;99.90;;;;;;5061655;28;20417;-75
2023/08/11 00:21:17;;;;;;;0.10;0.10;;;;;;;;;;5061878;28;20233;-76
2023/08/11 00:23:43;;;;;;;0.10;0.10;;;16.80;99.90;;;;;;5061423;28;20090;-75
2023/08/11 00:26:10;;;;;;;0.10;0.10;;;16.90;99.90;;;;;;5059881;28;20198;-75
2023/08/11 00:28:39;;;;;;;0.68;0.68;;;16.40;99.90;;;;;;5041486;28;20028;-75
2023/08/11 00:31:05;;;;;;;0.10;0.10;;;18.40;99.90;;;;;;5041520;28;20016;-75
2023/08/11 00:33:31;;;;;;;0.10;0.10;;;16.20;99.90;;;;;;5059092;28;20099;-75
2023/08/11 00:35:57;;;;;;;0.10;0.10;;;16.10;99.90;;;;;;5058908;28;20111;-74
2023/08/11 00:38:32;;;;;;;0.10;0.10;;;15.80;99.90;;;;;;5059617;28;20220;-75
2023/08/11 00:40:58;;;;;;;0.10;0.10;;;15.80;99.90;;;;;;5044364;28;20613;-76
2023/08/11 00:43:24;;;;;;;0.10;0.10;;;15.50;99.90;;;;;;5062035;28;20017;-75
2023/08/11 00:45:50;;;;;;;0.10;0.10;;;15.70;99.90;;;;;;5061571;28;20536;-76
2023/08/11 00:48:16;;;;;;;0.10;0.10;;;15.40;99.90;;;;;;5061156;28;20497;-75
2023/08/11 00:50:42;;;;;;;0.20;0.20;;;15.40;99.90;;;;;;5060339;28;20086;-75
2023/08/11 00:53:09;;;;;;;0.10;0.10;;;15.20;99.90;;;;;;5060536;28;20214;-75
2023/08/11 00:55:35;;;;;;;1.95;1.95;;;15.20;99.90;;;;;;5059975;28;20013;-77
2023/08/11 00:58:02;;;;;;;0.20;0.20;;;15.20;99.90;;;;;;5040485;28;20102;-78
2023/08/11 01:00:28;;;;;;;0.13;0.13;;;14.90;99.90;;;;;;5040775;28;20040;-75
2023/08/11 01:02:54;;;;;;;0.10;0.10;;;14.70;99.90;;;;;;5058508;28;20023;-76
2023/08/11 01:05:20;;;;;;;0.30;0.30;;;15.30;99.90;;;;;;5057933;28;20037;-78
2023/08/11 01:07:45;;;;;;;0.10;0.10;;;15.40;99.90;;;;;;5040432;28;20083;-78
2023/08/11 01:10:25;;;;;;;0.10;0.10;;;15.20;99.90;;;;;;5059197;28;20064;-78
2023/08/11 01:13:00;;;;;;;0.10;0.10;;;14.90;99.90;;;;;;5064414;28;20309;-78
2023/08/11 01:15:38;;;;;;;0.10;0.10;;;15.10;99.90;;;;;;5062515;28;20028;-75
2023/08/11 01:18:06;;;;;;;0.10;0.10;;;15.30;99.90;;;;;;5060439;28;20070;-77
2023/08/11 01:20:33;;;;;;;0.10;0.10;;;15.90;99.90;;;;;;5060144;28;20245;-76
2023/08/11 01:23:01;;;;;;;0.20;0.20;;;16.30;99.90;;;;;;5042571;28;20518;-76
2023/08/11 01:25:29;;;;;;;0.10;0.10;;;16.20;99.90;;;;;;5058326;28;20052;-76
2023/08/11 01:27:55;;;;;;;0.10;0.10;;;16.00;99.90;;;;;;5040416;28;20025;-76
2023/08/11 01:30:21;;;;;;;0.17;0.17;;;15.60;99.90;;;;;;5040574;28;20425;-76
2023/08/11 01:32:47;;;;;;;0.30;0.30;;;15.60;99.90;;;;;;5058971;28;20027;-77
2023/08/11 01:35:13;;;;;;;0.10;0.10;;;16.20;99.90;;;;;;5040294;28;20251;-77
2023/08/11 01:37:39;;;;;;;0.10;0.10;;;15.90;99.90;;;;;;5040146;28;20082;-77
2023/08/11 01:40:13;;;;;;;0.10;0.10;;;16.10;99.90;;;;;;5040793;28;20514;-78
2023/08/11 01:42:41;;;;;;;0.30;0.30;;;16.00;99.90;;;;;;5040978;28;20029;-75
2023/08/11 01:45:12;;;;;;;0.20;0.20;;;15.90;99.90;;;;;;5058034;28;20533;-78
2023/08/11 01:47:41;;;;;;;0.30;0.30;;;16.30;99.90;;;;;;5058251;28;20498;-75
2023/08/11 01:50:09;;;;;;;0.10;0.10;;;16.50;99.90;;;;;;5059025;28;20020;-75
2023/08/11 01:52:40;;;;;;;0.10;0.10;;;17.00;99.90;;;;;;5040382;28;20123;-75
2023/08/11 01:55:09;;;;;;;0.10;0.10;;;16.70;99.90;;;;;;5039669;28;20040;-75
2023/08/11 01:57:39;;;;;;;0.10;0.10;;;16.70;99.90;;;;;;5039651;28;20051;-75
2023/08/11 02:00:12;;;;;;;0.10;0.10;;;16.60;99.90;;;;;;5060128;28;20198;-81
2023/08/11 02:02:38;;;;;;;0.10;0.10;;;16.60;99.90;;;;;;5061268;28;20449;-76
2023/08/11 02:05:06;;;;;;;1.95;1.85;;;16.60;99.90;;;;;;5059765;28;20036;-76
2023/08/11 02:07:32;;;;;;;0.10;0.10;;;18.80;99.90;;;;;;5059849;28;20020;-78
2023/08/11 02:10:01;;;;;;;0.10;0.10;;;17.10;99.90;;;;;;5061188;28;20134;-74
2023/08/11 02:12:27;;;;;;;0.43;0.43;;;17.90;99.90;;;;;;5060353;28;20059;-78
2023/08/11 02:14:53;;;;;;;0.20;0.20;;;17.20;99.90;;;;;;5059279;28;20017;-74
2023/08/11 02:17:20;;;;;;;0.10;0.10;;;16.80;99.90;;;;;;5059612;28;20020;-78
2023/08/11 02:19:46;;;;;;;0.10;0.10;;;16.20;99.90;;;;;;5058839;28;20013;-75
2023/08/11 02:22:12;;;;;;;0.10;0.10;;;16.10;99.90;;;;;;5059948;28;20020;-75
2023/08/11 02:24:38;;;;;;;0.20;0.20;;;15.70;99.90;;;;;;5041637;28;20037;-75
2023/08/11 02:27:04;;;;;;;0.20;0.20;;;14.60;99.90;;;;;;5041684;28;20025;-81
2023/08/11 02:29:31;;;;;;;1.25;1.25;;;15.50;99.90;;;;;;5041759;28;20109;-79
2023/08/11 02:31:57;;;;;;;0.20;0.20;;;15.10;99.90;;;;;;5058620;28;20009;-78
2023/08/11 02:34:24;;;;;;;0.10;0.10;;;15.90;99.90;;;;;;5041872;28;20289;-82
2023/08/11 02:36:50;;;;;;;0.10;0.10;;;16.10;99.90;;;;;;5041408;28;20033;-74
2023/08/11 02:39:16;;;;;;;0.10;0.10;;;15.60;99.90;;;;;;5040828;28;20549;-75
2023/08/11 02:41:42;;;;;;;0.10;0.10;;;15.90;99.90;;;;;;5059743;28;20032;-78
2023/08/11 02:44:08;;;;;;;0.30;0.30;;;15.50;99.90;;;;;;5058674;28;20237;-77
2023/08/11 02:46:34;;;;;;;0.10;0.10;;;15.40;99.90;;;;;;5057728;28;20055;-76
2023/08/11 02:49:00;;;;;;;0.10;0.10;;;14.90;99.90;;;;;;5057353;28;20071;-81
2023/08/11 02:51:26;;;;;;;0.13;0.13;;;15.20;99.90;;;;;;5057751;28;20013;-76
2023/08/11 02:53:52;;;;;;;0.10;0.10;;;16.10;99.90;;;;;;5058062;28;20329;-78
2023/08/11 02:56:17;;;;;;;0.10;0.10;;;14.60;99.90;;;;;;5039400;28;20049;-81
2023/08/11 02:58:43;;;;;;;0.10;0.10;;;16.00;99.90;;;;;;5039366;28;20059;-76
2023/08/11 03:01:09;;;;;;;0.10;0.10;;;15.70;99.90;;;;;;5057354;28;20510;-78
2023/08/11 03:03:35;;;;;;;0.10;0.10;;;15.70;99.90;;;;;;5039272;28;20468;-77
2023/08/11 03:06:01;;;;;;;0.10;0.10;;;15.50;99.90;;;;;;5057076;28;20017;-81
2023/08/11 03:08:27;;;;;;;0.10;0.10;;;14.00;99.90;;;;;;5059401;28;20028;-82
2023/08/11 03:10:53;;;;;;;0.10;0.10;;;14.90;99.90;;;;;;5061165;28;20095;-76
2023/08/11 03:13:19;;;;;;;0.10;0.10;;;15.00;99.90;;;;;;5043228;28;20055;-77
2023/08/11 03:15:45;;;;;;;0.55;0.55;;;15.90;99.90;;;;;;5025910;28;20033;-76
2023/08/11 03:18:11;;;;;;;0.10;0.10;;;16.10;99.90;;;;;;5061667;28;20070;-76
2023/08/11 03:20:37;;;;;;;1.40;1.40;;;16.70;99.90;;;;;;5043445;28;20329;-77
2023/08/11 03:23:06;;;;;;;0.10;0.10;;;17.00;99.90;;;;;;5061009;28;20154;-79
2023/08/11 03:25:32;;;;;;;0.10;0.10;;;16.70;99.90;;;;;;5061767;28;20039;-76
2023/08/11 03:27:58;;;;;;;0.10;0.10;;;17.20;99.90;;;;;;5042583;28;20013;-76
2023/08/11 03:30:24;;;;;;;0.10;0.10;;;17.30;99.90;;;;;;5061182;28;20024;-78
2023/08/11 03:32:51;;;;;;;0.10;0.10;;;17.50;99.90;;;;;;5068306;28;20021;-76
2023/08/11 03:35:19;;;;;;;0.10;0.10;;;17.40;99.90;;;;;;5065042;28;20597;-77
2023/08/11 03:37:45;;;;;;;0.10;0.10;;;17.20;99.90;;;;;;5064527;28;20020;-78
2023/08/11 03:40:13;;;;;;;0.25;0.25;;;17.40;99.90;;;;;;5061807;28;20032;-76
2023/08/11 03:42:41;;;;;;;0.15;0.15;;;17.30;99.90;;;;;;5061956;28;20609;-76
2023/08/11 03:45:07;;;;;;;0.10;0.10;;;17.20;99.90;;;;;;5043344;28;20110;-79
2023/08/11 03:47:33;;;;;;;0.20;0.20;;;17.60;99.90;;;;;;5043915;28;20486;-77
2023/08/11 03:49:59;;;;;;;0.13;0.13;;;17.50;99.90;;;;;;5062852;28;20268;-81
2023/08/11 03:52:25;;;;;;;1.00;1.00;;;17.20;99.90;;;;;;5061480;28;20246;-76
2023/08/11 03:54:51;;;;;;;0.10;0.10;;;17.40;99.90;;;;;;5062483;28;20570;-76
2023/08/11 03:57:17;;;;;;;0.10;0.10;;;16.80;99.90;;;;;;5063446;28;20016;-80
2023/08/11 03:59:43;;;;;;;0.73;0.73;;;17.40;99.90;;;;;;5045290;28;20059;-77
2023/08/11 04:02:09;;;;;;;0.10;0.10;;;17.50;99.90;;;;;;5060248;28;20044;-76
2023/08/11 04:04:35;;;;;;;1.45;1.45;;;17.10;99.90;;;;;;5041575;28;20032;-80
2023/08/11 04:07:06;;;;;;;0.10;0.10;;;17.40;99.90;;;;;;5059642;28;20024;-78
2023/08/11 04:09:34;;;;;;;0.20;0.20;;;17.40;99.90;;;;;;5041589;28;20379;-75
2023/08/11 04:12:00;;;;;;;0.10;0.10;;;18.30;99.90;;;;;;5059975;28;20024;-75
2023/08/11 04:14:25;;;;;;;0.10;0.10;;;17.00;99.90;;;;;;5041552;28;20020;-75
2023/08/11 04:16:51;;;;;;;0.20;0.20;;;16.90;99.90;;;;;;5059702;28;20111;-75
2023/08/11 04:19:17;;;;;;;2.33;2.22;;;16.80;99.90;;;;;;5058795;28;20377;-74
2023/08/11 04:21:49;;;;;;;0.20;0.20;;;17.10;99.90;;;;;;5041288;28;20036;-77
2023/08/11 04:24:15;;;;;;;0.85;0.85;;;17.60;99.90;;;;;;5059414;28;20036;-75
2023/08/11 04:26:43;;;;;;;0.10;0.10;;;16.60;99.90;;;;;;5043222;28;20031;-75
2023/08/11 04:29:09;;;;;;;0.10;0.10;;;17.10;99.90;;;;;;5060111;28;20471;-81
2023/08/11 04:31:56;;;;;;;0.20;0.20;;;17.30;99.90;;;;;;5041446;28;20032;-76
2023/08/11 04:34:22;;;;;;;0.10;0.10;;;17.50;99.90;;;;;;4963281;28;20066;-76
2023/08/11 04:36:48;;;;;;;0.20;0.20;;;17.50;99.90;;;;;;4962183;28;20065;-78
2023/08/11 04:39:14;;;;;;;1.33;1.33;;;17.70;99.90;;;;;;4981217;28;20073;-76
2023/08/11 04:41:41;;;;;;;4.18;1.85;;;17.70;99.90;;;;;;4982223;28;20050;-77
2023/08/11 04:44:07;;;;;;;0.10;0.10;;;18.10;99.90;;;;;;4979101;28;20092;-76
2023/08/11 04:46:33;;;;;;;0.10;0.10;;;18.00;99.90;;;;;;4979282;28;20346;-76
2023/08/11 04:48:59;;;;;;;0.15;0.15;;;16.90;99.90;;;;;;4979573;28;20612;-76
2023/08/11 04:51:25;;;;;;;0.20;0.20;;;18.30;99.90;;;;;;4962270;28;20081;-84
2023/08/11 04:53:51;;;;;;;0.35;0.35;;;18.20;99.90;;;;;;4962220;28;20394;-78
2023/08/11 04:56:17;;;;;;;0.10;0.10;;;18.20;99.90;;;;;;4978055;28;20105;-77
2023/08/11 04:58:42;;;;;;;0.10;0.10;;;17.90;99.90;;;;;;4961728;28;20121;-79
2023/08/11 05:01:20;;;;;;;0.10;0.10;;;18.40;99.90;;;;;;4978021;28;20311;-80
2023/08/11 05:03:57;;;;;;;0.10;0.10;;;18.50;99.90;;;;;;4977390;28;20429;-81
2023/08/11 05:06:24;;;;;;;0.63;0.63;;;18.10;99.90;;;;;;4978092;28;20551;-78
2023/08/11 05:08:50;;;;;;;0.20;0.20;;;15.90;99.90;;;;;;4978487;28;20026;-77
2023/08/11 05:11:16;;;;;;;0.10;0.10;;;18.40;99.90;;;;;;5012679;28;20029;-78
2023/08/11 05:13:43;;;;;;;0.10;0.10;;;18.80;99.90;;;;;;5060560;28;20492;-81
2023/08/11 05:16:09;;;;;;;0.20;0.20;;;18.50;99.90;;;;;;5060301;28;20040;-78
2023/08/11 05:18:35;;;;;;;0.10;0.10;;;18.70;99.90;;;;;;5059953;28;20617;-77
2023/08/11 05:21:02;;;;;;;0.10;0.10;;;17.50;99.90;;;;;;5059480;28;20386;-77
2023/08/11 05:23:28;;;;;;;0.10;0.10;;;18.90;99.90;;;;;;5060594;28;20518;-79
2023/08/11 05:26:03;;;;;;;0.10;0.10;;;18.70;99.90;;;;;;5041338;28;20052;-82
2023/08/11 05:28:37;;;;;;;0.22;0.22;;;18.80;99.90;;;;;;5041175;28;20060;-80
2023/08/11 05:31:40;;;;;;;0.10;0.10;;;19.80;99.90;;;;;;5058573;28;20316;-81
2023/08/11 05:34:59;;;;;;;0.10;0.10;;;19.20;99.90;;;;;;5040329;28;20025;-85
2023/08/11 05:37:24;;;;;;;0.10;0.10;;;21.50;99.90;;;;;;5058725;28;20037;-84
2023/08/11 05:39:52;;;;;;;0.10;0.10;;;18.90;99.90;;;;;;5060143;28;20414;-77
2023/08/11 05:42:18;;;;;;;0.68;0.68;;;19.00;99.90;;;;;;5059982;28;20509;-80
2023/08/11 05:44:44;;;;;;;0.10;0.10;;;19.10;99.90;;;;;;5059202;28;20243;-77
2023/08/11 05:47:13;;;;;;;0.95;0.95;;;19.00;99.90;;;;;;5058915;28;20328;-77
2023/08/11 05:49:42;;;;;;;1.52;1.42;;;20.30;99.90;;;;;;5058942;28;20466;-78
2023/08/11 05:52:08;;;;;;;3.97;2.30;;;18.70;99.90;;;;;;5058772;28;20016;-79
2023/08/11 05:54:37;;;;;;;0.70;0.70;;;18.70;99.90;;;;;;5059694;28;20024;-78
2023/08/11 05:57:03;;;;;;;0.20;0.20;;;18.20;99.90;;;;;;5059256;28;20029;-78
2023/08/11 05:59:29;;;;;;;0.15;0.15;;;17.90;99.90;;;;;;5059592;28;20016;-77
2023/08/11 06:01:55;;;;;;;0.10;0.10;;;18.30;99.90;;;;;;5059270;28;20055;-77
2023/08/11 06:04:21;;;;;;;0.22;0.22;;;18.60;99.90;;;;;;5041076;28;20442;-77
2023/08/11 06:06:47;;;;;;;0.10;0.10;;;18.90;99.90;;;;;;5060637;28;20027;-77
2023/08/11 06:09:14;;;;;;;0.10;0.10;;;18.80;99.90;;;;;;5041879;28;20052;-77
2023/08/11 06:11:40;;;;;;;0.20;0.20;;;18.90;99.90;;;;;;5041269;28;20020;-78
2023/08/11 06:14:06;;;;;;;0.20;0.20;;;18.80;99.90;;;;;;5060350;28;20020;-79
2023/08/11 06:16:32;;;;;;;0.10;0.10;;;19.40;99.90;;;;;;5058864;28;20417;-76
2023/08/11 06:18:58;;;;;;;0.10;0.10;;;19.30;99.90;;;;;;5059936;28;20308;-76
2023/08/11 06:21:24;;;;;;;0.30;0.30;;;19.30;99.90;;;;;;5059886;28;20044;-76
2023/08/11 06:23:50;;;;;;;0.10;0.10;;;19.00;99.90;;;;;;5060582;28;20055;-77
2023/08/11 06:26:16;;;;;;;0.85;0.85;;;18.70;99.90;;;;;;5059410;28;20033;-76
2023/08/11 06:28:42;;;;;;;0.25;0.25;;;19.10;99.90;;;;;;5059757;28;20481;-75
2023/08/11 06:31:10;;;;;;;0.25;0.25;;;18.70;99.90;;;;;;5059630;28;20217;-76
2023/08/11 06:33:38;;;;;;;0.30;0.30;;;18.30;99.90;;;;;;5041384;28;20222;-77
2023/08/11 06:36:05;;;;;;;9.10;8.38;;;18.50;99.90;;;;;;5040640;28;20082;-76
2023/08/11 06:38:32;;;;;;;0.10;0.10;;;18.40;99.90;;;;;;5059549;28;20333;-76
2023/08/11 06:40:58;;;;;;;0.22;0.22;;;18.50;99.90;;;;;;5040734;28;20584;-80
2023/08/11 06:43:24;;;;;;;0.47;0.47;;;18.30;99.90;;;;;;5058736;28;20021;-79
2023/08/11 06:45:50;;;;;;;0.10;0.10;;;18.30;99.90;;;;;;5062819;28;20021;-76
2023/08/11 06:48:16;;;;;;;0.10;0.10;;;18.50;99.90;;;;;;5046696;28;20052;-80
2023/08/11 06:50:42;;;;;;;0.22;0.22;;;18.60;99.90;;;;;;5044823;28;20063;-81
2023/08/11 06:53:08;;;;;;;0.40;0.40;;;18.70;99.90;;;;;;5062579;28;20045;-84
2023/08/11 06:55:34;;;;;;;0.10;0.10;;;18.50;99.90;;;;;;5044225;28;20024;-77
2023/08/11 06:58:01;;;;;;;0.10;0.10;;;18.70;99.90;;;;;;5044581;28;20025;-80
2023/08/11 07:00:27;;;;;;;0.10;0.10;;;18.90;99.90;;;;;;5062682;28;20051;-79
2023/08/11 07:02:52;;;;;;;0.10;0.10;;;18.60;99.90;;;;;;5062332;28;20112;-79
2023/08/11 07:05:18;;;;;;;0.10;0.10;;;18.70;99.90;;;;;;5071430;28;20047;-79
2023/08/11 07:07:44;;;;;;;0.10;0.10;;;18.30;99.90;;;;;;5081359;28;20027;-86
2023/08/11 07:10:11;;;;;;;0.25;0.25;;;18.10;99.90;;;;;;5081734;28;20020;-80
2023/08/11 07:12:36;;;;;;;0.10;0.10;;;17.90;99.90;;;;;;5082640;28;20125;-78
2023/08/11 07:15:03;;;;;;;0.10;0.10;;;17.90;99.90;;;;;;5064003;28;20527;-78
2023/08/11 07:17:31;;;;;;;0.10;0.10;;;17.80;99.90;;;;;;5062383;28;20038;-78
2023/08/11 07:19:57;;;;;;;0.50;0.50;;;17.80;99.90;;;;;;5064087;28;20782;-80
2023/08/11 07:22:23;;;;;;;0.63;0.63;;;17.80;99.90;;;;;;5064095;28;20910;-78
2023/08/11 07:24:49;;;;;;;0.10;0.10;;;17.80;99.90;;;;;;5082072;28;20042;-78
2023/08/11 07:27:16;;;;;;;1.95;1.85;;;17.70;99.90;;;;;;5082589;28;20043;-80
2023/08/11 07:29:42;;;;;;;0.10;0.10;;;16.10;99.90;;;;;;5063070;28;20335;-83
2023/08/11 07:32:09;;;;;;;0.10;0.10;;;16.10;99.90;;;;;;5081721;28;20012;-79
2023/08/11 07:34:36;;;;;;;0.15;0.15;;;18.40;99.90;;;;;;5062952;28;20142;-78
2023/08/11 07:37:07;;;;;;;3.85;1.85;;;18.00;99.90;;;;;;5063170;28;20279;-79
2023/08/11 07:39:33;;;;;;;0.10;0.10;;;17.80;99.90;;;;;;5081988;28;20020;-79
2023/08/11 07:42:02;;;;;;;0.30;0.30;;;17.80;99.90;;;;;;5081170;28;20028;-77
2023/08/11 07:44:33;;;;;;;0.38;0.38;;;17.80;99.90;;;;;;5063136;28;20028;-78
2023/08/11 07:47:14;;;;;;;0.10;0.10;;;17.80;99.90;;;;;;5063361;28;20020;-77
2023/08/11 07:49:40;;;;;;;0.40;0.40;;;18.10;99.90;;;;;;5062870;28;20081;-80
2023/08/11 07:52:05;;;;;;;0.10;0.10;;;17.90;99.90;;;;;;5063189;28;20020;-77
2023/08/11 07:54:31;;;;;;;0.47;0.47;;;17.70;99.90;;;;;;5080829;28;20012;-79
2023/08/11 07:56:57;;;;;;;2.80;2.70;;;17.90;99.90;;;;;;5081398;28;20596;-77
2023/08/11 07:59:26;;;;;;;1.30;1.25;;;18.10;99.90;;;;;;5063364;28;20732;-81
2023/08/11 08:01:52;;;;;;;0.10;0.10;;;18.40;99.90;;;;;;5080890;28;20032;-81
2023/08/11 08:04:18;;;;;;;0.10;0.10;;;18.50;99.90;;;;;;5080996;28;20024;-77
2023/08/11 08:06:45;;;;;;;0.10;0.10;;;19.00;99.90;;;;;;5063461;28;20020;-78
2023/08/11 08:09:14;;;;;;;0.10;0.10;;;19.20;99.90;;;;;;5081553;28;20716;-80
2023/08/11 08:11:45;;;;;;;0.10;0.10;;;19.30;99.90;;;;;;5081506;28;20020;-77
2023/08/11 08:14:14;;;;;;;0.10;0.10;;;19.10;99.90;;;;;;5080864;28;20146;-77
2023/08/11 08:16:47;;;;;;;0.30;0.30;;;19.50;99.90;;;;;;5080303;28;20220;-79
2023/08/11 08:19:14;;;;;;;0.10;0.10;;;19.40;99.90;;;;;;5081467;28;20104;-79
2023/08/11 08:21:43;;;;;;;1.30;1.30;;;21.10;99.90;;;;;;5081246;28;20020;-78
2023/08/11 08:24:11;;;;;;;0.10;0.10;;;19.30;99.90;;;;;;5096348;28;20024;-79
2023/08/11 08:26:37;;;;;;;1.58;1.58;;;19.60;99.90;;;;;;5063120;28;20024;-78
2023/08/11 08:29:03;;;;;;;0.10;0.10;;;20.80;99.90;;;;;;5063692;28;20020;-79
2023/08/11 08:31:29;;;;;;;1.95;1.85;;;19.80;99.90;;;;;;5062432;28;20039;-79
2023/08/11 08:33:55;;;;;;;0.10;0.10;;;19.80;99.90;;;;;;5062727;28;20026;-81
2023/08/11 08:36:21;;;;;;;0.40;0.40;;;19.60;99.90;;;;;;5080693;28;20021;-79
2023/08/11 08:38:47;;;;;;;0.10;0.10;;;19.60;99.90;;;;;;5061870;28;20016;-80
2023/08/11 08:41:17;;;;;;;3.30;1.65;;;21.40;99.90;;;;;;5079907;28;20307;-80
2023/08/11 08:43:43;;;;;;;0.50;0.50;;;19.50;99.90;;;;;;5080388;28;20042;-79
2023/08/11 08:46:12;;;;;;;0.20;0.20;;;19.70;99.90;;;;;;5080578;28;20077;-80
2023/08/11 08:48:49;;;;;;;0.10;0.10;;;19.30;99.90;;;;;;5080505;28;20016;-78
2023/08/11 08:51:15;;;;;;;0.43;0.40;;;19.30;99.90;;;;;;5062150;28;20588;-79
2023/08/11 08:53:43;;;;;;;0.15;0.15;;;19.30;99.90;;;;;;5080613;28;20552;-79
2023/08/11 08:56:09;;;;;;;0.10;0.10;;;19.10;99.90;;;;;;5079437;28;20201;-80
2023/08/11 08:58:35;;;;;;;0.10;0.10;;;19.30;99.90;;;;;;5080261;28;20107;-79
2023/08/11 09:01:03;;;;;;;0.20;0.20;;;19.50;99.90;;;;;;5048727;28;20519;-78
2023/08/11 09:03:31;;;;;;;0.10;0.10;;;19.50;99.90;;;;;;5039234;28;20020;-84
2023/08/11 09:05:57;;;;;;;0.10;0.10;;;19.60;99.90;;;;;;5038726;28;20090;-79
2023/08/11 09:08:23;;;;;;;0.10;0.10;;;19.90;99.90;;;;;;5038521;28;20021;-80
2023/08/11 09:10:49;;;;;;;0.32;0.32;;;19.90;99.90;;;;;;5037860;28;20104;-79
2023/08/11 09:13:16;;;;;;;0.20;0.20;;;20.10;99.90;;;;;;5040477;28;20600;-77
2023/08/11 09:15:42;;;;;;;0.55;0.55;;;20.30;99.90;;;;;;5038223;28;20232;-78
2023/08/11 09:18:14;;;;;;;0.40;0.40;;;20.60;99.90;;;;;;5039485;28;20009;-77
2023/08/11 09:20:40;;;;;;;0.10;0.10;;;20.80;99.90;;;;;;5039583;28;20018;-77
2023/08/11 09:23:06;;;;;;;0.10;0.10;;;21.10;99.90;;;;;;5038622;28;20032;-77
2023/08/11 09:25:33;;;;;;;0.10;0.10;;;21.40;99.90;;;;;;5038650;28;20033;-77
2023/08/11 09:27:59;;;;;;;0.63;0.57;;;21.50;99.90;;;;;;5039023;28;20120;-77
2023/08/11 09:30:31;;;;;;;0.10;0.10;;;21.70;99.90;;;;;;5040003;28;20039;-78
2023/08/11 09:33:01;;;;;;;0.10;0.10;;;22.10;99.90;;;;;;5039474;28;20584;-78
2023/08/11 09:35:27;;;;;;;0.10;0.10;;;22.40;99.90;;;;;;5039082;28;20025;-77
2023/08/11 09:37:54;;;;;;;0.17;0.17;;;23.20;99.90;;;;;;5037974;28;20677;-76
2023/08/11 09:40:21;;;;;;;0.10;0.10;;;23.10;99.90;;;;;;5037982;28;20356;-76
2023/08/11 09:42:47;;;;;;;0.50;0.50;;;23.30;99.90;;;;;;5038208;28;20021;-76
2023/08/11 09:45:14;;;;;;;0.20;0.20;;;23.20;99.90;;;;;;5037471;28;20059;-76
2023/08/11 09:47:40;;;;;;;0.10;0.10;;;25.90;99.90;;;;;;5037375;28;20021;-76
2023/08/11 09:50:08;;;;;;;0.20;0.20;;;23.50;99.90;;;;;;5036884;28;20037;-75
2023/08/11 09:52:37;;;;;;;0.60;0.60;;;23.50;99.90;;;;;;5038373;28;20142;-76
2023/08/11 09:55:06;;;;;;;0.10;0.10;;;23.30;99.90;;;;;;5038971;28;20017;-76
2023/08/11 09:57:36;;;;;;;0.20;0.20;;;23.20;99.60;;;;;;5037607;28;20096;-76
2023/08/11 10:00:11;;;;;;;0.10;0.10;;;23.20;99.90;;;;;;5042396;28;20021;-76
2023/08/11 10:02:49;;;;;;;0.20;0.20;;;23.30;99.70;;;;;;5078497;28;20020;-75
2023/08/11 10:05:17;;;;;;;0.10;0.10;;;23.50;99.40;;;;;;5060635;28;20181;-76
2023/08/11 10:07:46;;;;;;;0.17;0.17;;;24.20;99.70;;;;;;5061034;28;20016;-75
2023/08/11 10:10:17;;;;;;;0.13;0.13;;;23.70;99.60;;;;;;5060714;28;20157;-76
2023/08/11 10:13:08;;;;;;;0.10;0.10;;;21.00;98.40;;;;;;5061246;28;20038;-77
2023/08/11 10:15:35;;;;;;;0.20;0.20;;;23.80;98.60;;;;;;5060127;28;20020;-77
2023/08/11 10:18:07;;;;;;;0.20;0.20;;;24.20;98.50;;;;;;5077900;28;20082;-76
2023/08/11 10:20:33;;;;;;;0.10;0.10;;;24.70;96.70;;;;;;5061129;28;20063;-83
2023/08/11 10:23:01;;;;;;;0.10;0.10;;;25.50;95.90;;;;;;5059622;28;20513;-76
2023/08/11 10:25:27;;;;;;;0.10;0.10;;;25.60;95.50;;;;;;5079521;28;20125;-76
2023/08/11 10:27:54;;;;;;;0.00;0.00;;;25.30;95.10;;;;;;5078126;28;20703;-76
2023/08/11 10:30:25;;;;;;;0.10;0.10;;;24.60;94.70;;;;;;5078523;28;20024;-80
2023/08/11 10:33:02;;;;;;;0.50;0.50;;;24.60;94.80;;;;;;5078140;28;20032;-75
2023/08/11 10:35:35;;;;;;;0.10;0.10;;;24.60;95.10;;;;;;5060562;28;20016;-81
2023/08/11 10:38:07;;;;;;;0.17;0.17;;;23.30;95.30;;;;;;5079489;28;20072;-80
2023/08/11 10:40:39;;;;;;;0.10;0.10;;;24.10;95.80;;;;;;5078235;28;20645;-76
2023/08/11 10:43:06;;;;;;;0.30;0.30;;;23.80;94.90;;;;;;5060624;28;20012;-77
2023/08/11 10:45:34;;;;;;;0.00;0.00;;;24.00;95.00;;;;;;5060049;28;20052;-82
2023/08/11 10:48:06;;;;;;;0.10;0.10;;;24.30;95.10;;;;;;5060602;28;20078;-79
2023/08/11 10:50:32;;;;;;;0.00;0.00;;;27.10;96.60;;;;;;5060236;28;20028;-81
2023/08/11 10:53:21;;;;;;;0.00;0.00;;;23.80;96.30;;;;;;5078164;28;20082;-78
2023/08/11 10:56:05;;;;;;;2.25;0.90;;;23.80;95.90;;;;;;5060167;28;20700;-77
2023/08/11 10:58:32;;;;;;;0.05;0.05;;;23.70;96.70;;;;;;5079336;28;20650;-76
2023/08/11 11:00:58;;;;;;;1.30;1.20;;;25.10;96.60;;;;;;5078075;28;20105;-77
2023/08/11 11:03:25;;;;;;;0.00;0.00;;;24.50;95.60;;;;;;5078166;28;20016;-81
2023/08/11 11:05:51;;;;;;;0.20;0.20;;;24.80;94.80;;;;;;5078275;28;20426;-78
2023/08/11 11:08:17;;;;;;;0.10;0.10;;;25.10;93.70;;;;;;5078577;28;20413;-83
2023/08/11 11:10:43;;;;;;;0.20;0.20;;;25.10;93.50;;;;;;5079452;28;20020;-76
2023/08/11 11:13:09;;;;;;;0.10;0.10;;;25.20;91.60;;;;;;5060560;28;20129;-79
2023/08/11 11:15:36;;;;;;;0.20;0.20;;;25.00;91.30;;;;;;5061756;28;20038;-77
2023/08/11 11:18:02;;;;;;;0.00;0.00;;;24.80;91.80;;;;;;5061529;28;20055;-78
2023/08/11 11:20:28;;;;;;;0.10;0.10;;;22.30;87.30;;;;;;5078582;28;20020;-77
2023/08/11 11:22:55;;;;;;;0.40;0.40;;;24.20;89.00;;;;;;5060575;28;20119;-83
2023/08/11 11:25:21;;;;;;;0.10;0.10;;;24.30;87.00;;;;;;5079118;28;20027;-78
2023/08/11 11:27:47;;;;;;;0.30;0.30;;;24.50;88.90;;;;;;5083023;28;20016;-81
2023/08/11 11:30:13;;;;;;;0.00;0.00;;;24.40;88.20;;;;;;5064562;28;20659;-80
2023/08/11 11:32:40;;;;;;;1.25;1.20;;;24.90;87.40;;;;;;5082780;28;20013;-77
2023/08/11 11:35:10;;;;;;;0.52;0.28;;;25.40;85.50;;;;;;5081899;28;20027;-88
2023/08/11 11:37:36;;;;;;;0.10;0.10;;;26.10;87.30;;;;;;5081187;28;20020;-81
2023/08/11 11:40:06;;;;;;;0.10;0.10;;;26.70;82.70;;;;;;5082108;28;20767;-74
2023/08/11 11:42:38;;;;;;;0.10;0.10;;;27.30;79.80;;;;;;5081276;28;20567;-75
2023/08/11 11:45:05;;;;;;;0.00;0.00;;;27.80;79.00;;;;;;5081466;28;20063;-77
2023/08/11 11:47:33;;;;;;;0.10;0.10;;;27.50;75.40;;;;;;5063665;28;20646;-77
2023/08/11 11:49:59;;;;;;;0.00;0.00;;;27.80;74.40;;;;;;5081030;28;20021;-76
2023/08/11 11:52:25;;;;;;;0.00;0.00;;;27.50;74.00;;;;;;5065150;28;20024;-77
2023/08/11 11:54:52;;;;;;;0.00;0.00;;;26.80;73.50;;;;;;5082488;28;20055;-84
2023/08/11 11:57:19;;;;;;;0.00;0.00;;;;;;;;;;5081587;28;20688;-75
2023/08/11 11:59:49;;;;;;;0.20;0.20;;;26.40;75.80;;;;;;5080884;28;20051;-78
2023/08/11 12:02:16;;;;;;;0.03;0.03;;;26.20;78.10;;;;;;5062782;28;20595;-81
2023/08/11 12:04:46;;;;;;;1.35;0.52;;;26.20;78.20;;;;;;5081017;28;20131;-77
2023/08/11 12:07:31;;;;;;;0.00;0.00;;;26.30;75.80;;;;;;5062865;28;20028;-85
2023/08/11 12:09:58;;;;;;;0.00;0.00;;;26.70;75.40;;;;;;5081348;28;20028;-81
2023/08/11 12:12:27;;;;;;;0.00;0.00;;;26.90;75.20;;;;;;5081275;28;20069;-80
2023/08/11 12:15:00;;;;;;;0.10;0.10;;;26.50;75.30;;;;;;5081504;28;20521;-81
2023/08/11 12:17:29;;;;;;;0.10;0.10;;;25.80;76.90;;;;;;5080185;28;20020;-77
2023/08/11 12:19:55;;;;;;;0.10;0.10;;;29.20;79.40;;;;;;5062161;28;20039;-76
2023/08/11 12:22:21;;;;;;;0.10;0.10;;;25.80;76.60;;;;;;5063195;28;20020;-75
2023/08/11 12:24:47;;;;;;;0.00;0.00;;;25.50;76.00;;;;;;5081196;28;20125;-77
2023/08/11 12:27:13;;;;;;;0.00;0.00;;;25.30;73.90;;;;;;5080830;28;20023;-75
2023/08/11 12:29:38;;;;;;;0.40;0.40;;;25.10;74.40;;;;;;5081393;28;20024;-76
2023/08/11 12:32:04;;;;;;;0.00;0.00;;;25.00;74.20;;;;;;5062588;28;20173;-75
2023/08/11 12:34:30;;;;;;;0.10;0.10;;;25.20;74.60;;;;;;5062849;28;20027;-78
2023/08/11 12:36:56;;;;;;;0.10;0.10;;;26.00;71.60;;;;;;5080785;28;20036;-77
2023/08/11 12:39:22;;;;;;;0.10;0.10;;;26.70;70.60;;;;;;5062206;28;20066;-76
2023/08/11 12:41:48;;;;;;;0.10;0.10;;;27.40;68.00;;;;;;5060409;28;20028;-76
2023/08/11 12:44:15;;;;;;;0.10;0.10;;;28.10;66.30;;;;;;5062125;28;20039;-75
2023/08/11 12:46:41;;;;;;;0.20;0.20;;;28.80;67.20;;;;;;5061736;28;20030;-82
2023/08/11 12:49:07;;;;;;;0.00;0.00;;;29.40;65.90;;;;;;5080273;28;20016;-77
2023/08/11 12:51:33;;;;;;;1.40;1.13;;;29.30;65.90;;;;;;5080591;28;20478;-78